Time;durP1;ratioP1;P1;durP2;ratioP2;P2;SDS_P1;SDS_P2;PMS_P1;PMS_P2;Temp;Humidity;BMP_temperature;BMP_pressure;BME280_temperature;BME280_humidity;BME280_pressure;Samples;Min_cycle;Max_cycle;Signal;HPM_P1;HPM_P2
2023/05/29 00:02:16;;;;;;;;;;;;;;;26.41;37.04;100346.00;5056861;28;1036;-41
2023/05/29 00:04:42;;;;;;;;;;;;;;;26.28;37.26;100349.34;5074969;28;1074;-40
2023/05/29 00:07:07;;;;;;;;;;;;;;;26.37;37.53;100335.78;5077389;28;1233;-37
2023/05/29 00:09:33;;;;;;;;;;;;;;;26.29;37.33;100339.41;5075747;28;1166;-39
2023/05/29 00:11:58;;;;;;;;;;;;;;;26.24;37.36;100336.44;5076161;28;1126;-40
2023/05/29 00:14:25;;;;;;;;;;;;;;;26.09;37.99;100342.63;5076436;28;1244;-40
2023/05/29 00:16:50;;;;;;;;;;;;;;;26.44;37.32;100341.28;5064387;28;1984;-37
2023/05/29 00:19:23;;;;;;;;;;;;;;;26.52;37.20;100339.31;5061537;28;1110;-39
2023/05/29 00:21:49;;;;;;;;;;;;;;;26.54;36.86;100339.13;5069585;28;1074;-41
2023/05/29 00:24:15;;;;;;;;;;;;;;;26.47;36.90;100339.03;5076102;28;1074;-39
2023/05/29 00:26:40;;;;;;;;;;;;;;;26.36;37.34;100332.25;5063429;28;1114;-41
2023/05/29 00:29:06;;;;;;;;;;;;;;;26.27;37.63;100339.59;5038332;28;1135;-40
2023/05/29 00:31:32;;;;;;;;;;;;;;;26.25;37.35;100335.41;5038246;28;1214;-41
2023/05/29 00:33:58;;;;;;;;;;;;;;;26.25;37.34;100343.47;5064156;28;1162;-40
2023/05/29 00:36:25;;;;;;;;;;;;;;;26.19;37.79;100334.31;5064823;28;1894;-41
2023/05/29 00:38:50;;;;;;;;;;;;;;;26.23;37.73;100332.88;5055808;28;1173;-41
2023/05/29 00:41:16;;;;;;;;;;;;;;;26.23;37.58;100345.53;5076119;28;1094;-39
2023/05/29 00:43:42;;;;;;;;;;;;;;;26.19;37.48;100346.94;5062508;28;1054;-36
2023/05/29 00:46:08;;;;;;;;;;;;;;;26.17;37.73;100339.84;5071811;28;1223;-40
2023/05/29 00:48:33;;;;;;;;;;;;;;;26.33;37.55;100343.41;5044990;28;1043;-39
2023/05/29 00:50:59;;;;;;;;;;;;;;;26.31;37.33;100342.72;5047299;28;1075;-39
2023/05/29 00:53:25;;;;;;;;;;;;;;;26.17;37.69;100341.72;5051345;28;1088;-40
2023/05/29 00:55:50;;;;;;;;;;;;;;;26.24;37.15;100339.94;5066759;28;1975;-41
2023/05/29 00:58:16;;;;;;;;;;;;;;;26.18;37.77;100332.59;5065896;28;1071;-40
2023/05/29 01:00:42;;;;;;;;;;;;;;;26.12;37.51;100334.22;5047452;28;1241;-40
2023/05/29 01:03:09;;;;;;;;;;;;;;;26.21;37.54;100331.41;5055118;28;1076;-37
2023/05/29 01:05:35;;;;;;;;;;;;;;;26.22;37.43;100327.69;5064742;28;1126;-39
2023/05/29 01:08:01;;;;;;;;;;;;;;;26.19;37.31;100337.00;5073200;28;1091;-42
2023/05/29 01:10:28;;;;;;;;;;;;;;;26.22;37.55;100325.00;5073308;28;1150;-39
2023/05/29 01:13:14;;;;;;;;;;;;;;;26.12;37.38;100326.13;5052987;28;1175;-41
2023/05/29 01:15:46;;;;;;;;;;;;;;;26.24;37.20;100314.84;5050881;28;1968;-41
2023/05/29 01:18:25;;;;;;;;;;;;;;;26.29;36.98;100321.34;5046643;28;1562;-41
2023/05/29 01:20:51;;;;;;;;;;;;;;;26.32;37.12;100317.44;5054390;28;1106;-41
2023/05/29 01:23:35;;;;;;;;;;;;;;;26.31;36.90;100317.66;5055133;28;933;-41
2023/05/29 01:26:01;;;;;;;;;;;;;;;26.41;36.65;100321.75;5056868;28;1155;-41
2023/05/29 01:28:56;;;;;;;;;;;;;;;26.23;37.17;100318.56;5063168;28;1229;-40
2023/05/29 01:31:23;;;;;;;;;;;;;;;26.21;37.48;100323.31;5048428;28;1246;-37
2023/05/29 01:33:53;;;;;;;;;;;;;;;26.34;36.87;100318.09;5042371;28;1060;-38
2023/05/29 01:36:19;;;;;;;;;;;;;;;26.44;37.20;100309.75;5057588;28;1910;-42
2023/05/29 01:38:44;;;;;;;;;;;;;;;26.24;37.26;100312.16;5061827;28;1223;-41
2023/05/29 01:41:10;;;;;;;;;;;;;;;26.12;37.46;100314.50;5046841;28;1254;-39
2023/05/29 01:43:35;;;;;;;;;;;;;;;26.19;37.24;100307.34;5055010;28;1159;-38
2023/05/29 01:46:01;;;;;;;;;;;;;;;26.25;37.33;100306.59;5048731;28;1048;-40
2023/05/29 01:48:26;;;;;;;;;;;;;;;26.13;37.44;100308.91;5074943;28;1249;-40
2023/05/29 01:50:52;;;;;;;;;;;;;;;26.24;37.14;100302.19;5070130;28;1035;-40
2023/05/29 01:53:17;;;;;;;;;;;;;;;26.16;37.13;100302.28;5060812;28;1121;-41
2023/05/29 01:55:43;;;;;;;;;;;;;;;26.11;37.35;100305.56;5050837;28;1906;-42
2023/05/29 01:58:08;;;;;;;;;;;;;;;26.21;37.17;100299.88;5057752;28;1641;-40
2023/05/29 02:00:36;;;;;;;;;;;;;;;26.10;37.56;100301.19;5044777;28;1202;-41
2023/05/29 02:03:03;;;;;;;;;;;;;;;26.32;36.91;100311.22;5078913;28;1094;-40
2023/05/29 02:05:28;;;;;;;;;;;;;;;26.19;37.25;100311.88;5079022;28;1139;-43
2023/05/29 02:07:54;;;;;;;;;;;;;;;26.19;37.01;100309.19;5061467;28;1099;-41
2023/05/29 02:10:20;;;;;;;;;;;;;;;26.14;37.16;100315.97;5051416;28;1134;-38
2023/05/29 02:12:45;;;;;;;;;;;;;;;26.14;37.45;100317.84;5043639;28;1101;-41
2023/05/29 02:15:11;;;;;;;;;;;;;;;26.27;36.72;100315.31;5058493;28;1981;-41
2023/05/29 02:17:36;;;;;;;;;;;;;;;26.30;36.64;100322.19;5054289;28;1226;-41
2023/05/29 02:20:04;;;;;;;;;;;;;;;26.14;37.28;100323.25;5051781;28;1123;-40
2023/05/29 02:22:29;;;;;;;;;;;;;;;26.27;36.92;100325.25;5056154;28;1225;-38
2023/05/29 02:24:55;;;;;;;;;;;;;;;26.22;36.69;100325.00;5069470;28;1058;-39
2023/05/29 02:27:20;;;;;;;;;;;;;;;26.23;36.74;100323.94;5043196;28;1054;-41
2023/05/29 02:29:46;;;;;;;;;;;;;;;26.23;36.98;100316.72;5069468;28;1151;-41
2023/05/29 02:32:11;;;;;;;;;;;;;;;26.14;37.44;100318.66;5057364;28;1506;-39
2023/05/29 02:34:37;;;;;;;;;;;;;;;26.28;37.02;100322.38;5068283;28;1115;-38
2023/05/29 02:37:03;;;;;;;;;;;;;;;26.30;36.89;100324.88;5077773;28;1886;-41
2023/05/29 02:39:29;;;;;;;;;;;;;;;26.14;37.12;100331.31;5078348;28;1069;-41
2023/05/29 02:41:55;;;;;;;;;;;;;;;26.08;37.46;100326.66;5060301;28;1113;-40
2023/05/29 02:44:20;;;;;;;;;;;;;;;26.17;36.85;100326.38;5068443;28;1152;-38
2023/05/29 02:46:47;;;;;;;;;;;;;;;26.24;36.68;100325.66;5074083;28;1198;-40
2023/05/29 02:49:14;;;;;;;;;;;;;;;26.20;37.11;100321.63;5060554;28;1098;-40
2023/05/29 02:51:40;;;;;;;;;;;;;;;26.23;36.91;100322.09;5077985;28;1078;-39
2023/05/29 02:54:05;;;;;;;;;;;;;;;26.22;36.82;100325.00;5050938;28;1249;-41
2023/05/29 02:56:31;;;;;;;;;;;;;;;26.27;36.61;100317.19;5074368;28;1985;-41
2023/05/29 02:58:56;;;;;;;;;;;;;;;26.17;37.18;100323.66;5059047;28;1079;-39
2023/05/29 03:01:22;;;;;;;;;;;;;;;26.33;36.50;100318.28;5060152;28;1110;-39
2023/05/29 03:03:48;;;;;;;;;;;;;;;26.21;36.81;100324.16;5078367;28;1050;-41
2023/05/29 03:06:13;;;;;;;;;;;;;;;26.23;37.05;100323.94;5059405;28;1074;-41
2023/05/29 03:08:44;;;;;;;;;;;;;;;26.24;36.92;100318.38;5059980;28;1192;-41
2023/05/29 03:11:15;;;;;;;;;;;;;;;26.19;37.06;100318.13;5059819;28;1217;-40
2023/05/29 03:13:40;;;;;;;;;;;;;;;26.15;36.98;100324.91;5059880;28;1129;-40
2023/05/29 03:16:08;;;;;;;;;;;;;;;26.34;37.31;100334.28;5056214;28;1910;-42
2023/05/29 03:18:35;;;;;;;;;;;;;;;25.82;40.26;100333.34;5050605;28;1283;-42
2023/05/29 03:21:01;;;;;;;;;;;;;;;25.03;44.78;100339.72;5059863;28;1185;-41
2023/05/29 03:23:28;;;;;;;;;;;;;;;24.62;46.20;100346.16;5059396;28;1217;-43
2023/05/29 03:25:54;;;;;;;;;;;;;;;24.68;46.48;100345.44;5059844;28;1127;-40
2023/05/29 03:28:20;;;;;;;;;;;;;;;24.43;47.44;100342.03;5043784;28;1382;-43
2023/05/29 03:30:46;;;;;;;;;;;;;;;24.50;46.70;100345.69;5039945;28;1427;-44
2023/05/29 03:33:15;;;;;;;;;;;;;;;24.25;47.85;100353.00;5056318;28;1151;-44
2023/05/29 03:36:03;;;;;;;;;;;;;;;24.54;47.19;100343.50;5050362;28;1914;-43
2023/05/29 03:38:28;;;;;;;;;;;;;;;24.11;48.49;100343.81;5070724;28;1031;-41
2023/05/29 03:40:57;;;;;;;;;;;;;;;24.33;48.23;100348.47;5039819;28;1151;-42
2023/05/29 03:43:22;;;;;;;;;;;;;;;24.17;48.47;100351.19;5055410;28;1106;-43
2023/05/29 03:45:48;;;;;;;;;;;;;;;24.14;48.61;100352.34;5041731;28;1323;-43
2023/05/29 03:48:14;;;;;;;;;;;;;;;24.53;47.31;100345.34;5031814;28;1151;-44
2023/05/29 03:50:41;;;;;;;;;;;;;;;24.60;46.93;100353.56;5025440;28;1199;-43
2023/05/29 03:53:07;;;;;;;;;;;;;;;24.21;48.25;100352.53;5033599;28;1214;-41
2023/05/29 03:55:33;;;;;;;;;;;;;;;24.10;48.58;100348.34;5009133;28;1906;-44
2023/05/29 03:57:59;;;;;;;;;;;;;;;24.69;46.86;100352.47;5035821;28;1183;-45
2023/05/29 04:00:25;;;;;;;;;;;;;;;25.50;45.93;100358.53;5026047;28;1134;-43
2023/05/29 04:02:51;;;;;;;;;;;;;;;25.68;44.42;100358.22;5029380;28;1127;-43
2023/05/29 04:05:18;;;;;;;;;;;;;;;25.63;44.03;100362.47;5018461;28;1155;-37
2023/05/29 04:07:46;;;;;;;;;;;;;;;25.60;44.57;100352.03;5020465;28;1039;-34
2023/05/29 04:10:14;;;;;;;;;;;;;;;25.74;43.50;100347.75;5034842;28;1225;-34
2023/05/29 04:12:39;;;;;;;;;;;;;;;26.01;42.99;100356.22;5032839;28;1055;-35
2023/05/29 04:15:05;;;;;;;;;;;;;;;26.11;42.30;100350.56;5015613;28;1918;-32
2023/05/29 04:17:32;;;;;;;;;;;;;;;26.09;41.68;100350.72;5016017;28;1489;-41
2023/05/29 04:19:59;;;;;;;;;;;;;;;26.20;41.77;100344.03;5016754;28;1300;-42
2023/05/29 04:22:24;;;;;;;;;;;;;;;26.28;42.34;100346.66;5017235;28;1207;-39
2023/05/29 04:24:50;;;;;;;;;;;;;;;26.40;41.25;100347.03;5026341;28;1283;-37
2023/05/29 04:27:16;;;;;;;;;;;;;;;26.24;41.71;100352.59;5027190;28;1292;-42
2023/05/29 04:29:42;;;;;;;;;;;;;;;26.34;41.49;100347.78;5018627;28;1127;-43
2023/05/29 04:32:11;;;;;;;;;;;;;;;26.29;41.81;100350.19;5027656;28;1238;-41
2023/05/29 04:34:43;;;;;;;;;;;;;;;26.32;41.19;100351.66;5035586;28;1226;-42
2023/05/29 04:37:11;;;;;;;;;;;;;;;26.37;40.79;100355.50;5021445;28;1902;-45
2023/05/29 04:39:37;;;;;;;;;;;;;;;26.27;41.58;100354.94;5026469;28;1401;-43
2023/05/29 04:42:04;;;;;;;;;;;;;;;26.35;40.99;100360.25;5028820;28;1145;-44
2023/05/29 04:44:30;;;;;;;;;;;;;;;26.49;40.85;100355.84;5024924;28;1224;-45
2023/05/29 04:46:56;;;;;;;;;;;;;;;26.61;40.39;100355.38;5033796;28;1169;-47
2023/05/29 04:49:22;;;;;;;;;;;;;;;26.56;40.77;100363.22;5035892;28;1242;-38
2023/05/29 04:51:48;;;;;;;;;;;;;;;26.50;40.39;100354.84;5034808;28;1350;-42
2023/05/29 04:54:13;;;;;;;;;;;;;;;26.52;40.81;100370.84;5016696;28;1204;-39
2023/05/29 04:56:40;;;;;;;;;;;;;;;26.52;40.35;100382.47;5026775;28;1971;-40
2023/05/29 04:59:07;;;;;;;;;;;;;;;26.52;40.41;100378.94;5028952;28;2278;-44
2023/05/29 05:01:33;;;;;;;;;;;;;;;26.31;41.11;100385.88;5026914;28;880;-42
2023/05/29 05:03:59;;;;;;;;;;;;;;;26.26;41.28;100391.81;5029839;28;1211;-40
2023/05/29 05:06:25;;;;;;;;;;;;;;;26.29;41.24;100394.16;5027274;28;1178;-40
2023/05/29 05:08:52;;;;;;;;;;;;;;;26.36;40.85;100388.06;5034886;28;1155;-41
2023/05/29 05:11:21;;;;;;;;;;;;;;;26.40;40.41;100390.19;5035087;28;1312;-39
2023/05/29 05:13:47;;;;;;;;;;;;;;;26.59;40.22;100390.63;5017539;28;1147;-42
2023/05/29 05:16:12;;;;;;;;;;;;;;;26.38;40.57;100386.84;5035889;28;1910;-40
2023/05/29 05:18:39;;;;;;;;;;;;;;;26.35;40.58;100389.91;5021785;28;1405;-41
2023/05/29 05:21:07;;;;;;;;;;;;;;;26.25;40.69;100395.56;5023929;28;1213;-39
2023/05/29 05:23:34;;;;;;;;;;;;;;;26.38;40.75;100392.22;5023015;28;1353;-32
2023/05/29 05:25:59;;;;;;;;;;;;;;;26.27;42.44;100390.81;5035285;28;1277;-32
2023/05/29 05:28:25;;;;;;;;;;;;;;;26.18;42.04;100394.63;5019255;28;1151;-33
2023/05/29 05:30:51;;;;;;;;;;;;;;;26.37;41.78;100397.81;5033261;28;1339;-31
2023/05/29 05:33:17;;;;;;;;;;;;;;;26.28;42.89;100399.72;5028524;28;1119;-34
2023/05/29 05:35:43;;;;;;;;;;;;;;;26.13;42.66;100397.03;5038121;28;1906;-47
2023/05/29 05:38:09;;;;;;;;;;;;;;;25.66;44.04;100392.59;5038086;28;1145;-44
2023/05/29 05:40:34;;;;;;;;;;;;;;;25.17;45.00;100393.78;5026030;28;1460;-39
2023/05/29 05:43:10;;;;;;;;;;;;;;;25.24;44.15;100399.28;5036609;28;1449;-42
2023/05/29 05:45:56;;;;;;;;;;;;;;;25.38;44.93;100422.75;5061917;28;1258;-38
2023/05/29 05:48:21;;;;;;;;;;;;;;;25.49;44.27;100421.47;5049621;28;1186;-41
2023/05/29 05:50:47;;;;;;;;;;;;;;;25.10;43.23;100417.88;5034073;28;1146;-40
2023/05/29 05:53:13;;;;;;;;;;;;;;;25.28;44.31;100420.28;5059389;28;1426;-40
2023/05/29 05:55:39;;;;;;;;;;;;;;;25.34;45.40;100423.28;5061627;28;1984;-42
2023/05/29 05:58:04;;;;;;;;;;;;;;;25.52;43.64;100422.97;5047697;28;1358;-40
2023/05/29 06:00:30;;;;;;;;;;;;;;;25.36;44.09;100424.75;5060946;28;1122;-40
2023/05/29 06:02:56;;;;;;;;;;;;;;;25.61;44.22;100418.38;5060122;28;940;-42
2023/05/29 06:05:44;;;;;;;;;;;;;;;25.75;44.50;100423.00;5056969;28;1198;-42
2023/05/29 06:08:10;;;;;;;;;;;;;;;25.74;43.85;100421.31;5057702;28;1281;-38
2023/05/29 06:10:35;;;;;;;;;;;;;;;25.24;46.07;100410.88;5041615;28;1322;-41
2023/05/29 06:13:01;;;;;;;;;;;;;;;24.26;48.22;100411.97;5049207;28;1277;-40
2023/05/29 06:15:38;;;;;;;;;;;;;;;24.51;47.89;100414.59;5061323;28;1910;-41
2023/05/29 06:18:05;;;;;;;;;;;;;;;24.62;45.82;100416.06;5043542;28;1297;-42
2023/05/29 06:20:30;;;;;;;;;;;;;;;24.69;46.98;100417.03;5042860;28;1372;-41
2023/05/29 06:22:56;;;;;;;;;;;;;;;24.96;45.72;100410.56;5070231;28;1152;-42
2023/05/29 06:25:29;;;;;;;;;;;;;;;25.21;45.48;100419.31;5053415;28;1144;-39
2023/05/29 06:27:55;;;;;;;;;;;;;;;25.21;46.03;100427.38;5078373;28;1011;-39
2023/05/29 06:30:20;;;;;;;;;;;;;;;24.56;48.38;100417.59;5057002;28;1104;-41
2023/05/29 06:32:46;;;;;;;;;;;;;;;24.19;50.64;100421.75;5042531;28;1297;-40
2023/05/29 06:35:12;;;;;;;;;;;;;;;24.29;50.73;100413.50;5054975;28;1981;-41
2023/05/29 06:37:38;;;;;;;;;;;;;;;25.49;47.22;100412.56;5052661;28;1216;-41
2023/05/29 06:40:04;;;;;;;;;;;;;;;25.95;45.76;100414.41;5041917;28;1140;-41
2023/05/29 06:42:30;;;;;;;;;;;;;;;26.33;43.58;100404.59;5060452;28;1371;-42
2023/05/29 06:44:58;;;;;;;;;;;;;;;26.58;42.03;100401.59;5058589;28;1309;-41
2023/05/29 06:47:23;;;;;;;;;;;;;;;26.45;43.12;100399.56;5040717;28;1222;-39
2023/05/29 06:49:49;;;;;;;;;;;;;;;26.26;44.41;100397.22;5054260;28;1382;-43
2023/05/29 06:52:15;;;;;;;;;;;;;;;26.23;44.28;100405.69;5059412;28;1877;-43
2023/05/29 06:55:19;;;;;;;;;;;;;;;25.91;43.55;100411.22;5014452;28;1902;-36
2023/05/29 06:57:45;;;;;;;;;;;;;;;26.24;41.96;100415.44;5011308;28;1488;-41
2023/05/29 07:00:11;;;;;;;;;;;;;;;26.00;43.37;100416.53;5027020;28;1431;-37
2023/05/29 07:02:41;;;;;;;;;;;;;;;26.17;43.33;100414.53;5059878;28;1164;-38
2023/05/29 07:05:07;;;;;;;;;;;;;;;26.08;43.08;100424.53;5039234;28;1312;-44
2023/05/29 07:07:33;;;;;;;;;;;;;;;26.34;43.54;100419.75;5053423;28;1118;-42
2023/05/29 07:09:58;;;;;;;;;;;;;;;26.21;43.13;100417.69;5065259;28;1162;-38
2023/05/29 07:12:24;;;;;;;;;;;;;;;26.39;41.51;100423.56;5059418;28;1190;-36
2023/05/29 07:14:49;;;;;;;;;;;;;;;26.73;40.71;100429.41;5064984;28;1063;-37
2023/05/29 07:17:15;;;;;;;;;;;;;;;26.22;41.91;100425.59;5046515;28;1906;-37
2023/05/29 07:19:41;;;;;;;;;;;;;;;26.10;42.48;100429.75;5053738;28;1213;-35
2023/05/29 07:22:07;;;;;;;;;;;;;;;25.95;42.70;100427.03;5048244;28;1324;-37
2023/05/29 07:24:32;;;;;;;;;;;;;;;26.25;43.23;100441.41;5059251;28;1280;-40
2023/05/29 07:27:02;;;;;;;;;;;;;;;26.45;41.69;100454.34;5059873;28;1095;-37
2023/05/29 07:29:28;;;;;;;;;;;;;;;26.31;42.49;100463.25;5069087;28;1317;-36
2023/05/29 07:31:53;;;;;;;;;;;;;;;26.23;43.50;100475.78;5046997;28;1297;-38
2023/05/29 07:34:21;;;;;;;;;;;;;;;26.26;43.66;100478.09;5059974;28;1162;-38
2023/05/29 07:37:00;;;;;;;;;;;;;;;25.95;45.14;100479.06;5059330;28;1984;-36
2023/05/29 07:39:26;;;;;;;;;;;;;;;26.05;44.54;100478.81;5050193;28;1215;-37
2023/05/29 07:41:52;;;;;;;;;;;;;;;25.83;45.00;100488.59;5053141;28;1277;-38
2023/05/29 07:44:18;;;;;;;;;;;;;;;26.00;44.96;100487.47;5049046;28;1174;-38
2023/05/29 07:46:43;;;;;;;;;;;;;;;26.05;44.51;100486.91;5056417;28;1170;-37
2023/05/29 07:49:41;;;;;;;;;;;;;;;26.08;44.17;100489.22;5049145;28;1386;-36
2023/05/29 07:52:07;;;;;;;;;;;;;;;25.82;45.57;100492.31;5051192;28;1339;-36
2023/05/29 07:54:33;;;;;;;;;;;;;;;25.52;46.10;100499.25;5057435;28;1305;-36
2023/05/29 07:57:00;;;;;;;;;;;;;;;25.58;46.29;100499.50;5047161;28;1979;-38
2023/05/29 07:59:25;;;;;;;;;;;;;;;25.70;45.46;100486.50;5043374;28;1131;-36
2023/05/29 08:01:51;;;;;;;;;;;;;;;25.72;44.83;100479.94;5049277;28;1145;-36
2023/05/29 08:04:37;;;;;;;;;;;;;;;26.09;43.14;100474.72;5060269;28;1289;-37
2023/05/29 08:07:05;;;;;;;;;;;;;;;26.00;43.09;100473.97;5052827;28;1149;-37
2023/05/29 08:09:31;;;;;;;;;;;;;;;26.25;42.57;100476.44;5047855;28;1236;-36
2023/05/29 08:11:57;;;;;;;;;;;;;;;26.26;42.43;100485.34;5058576;28;1129;-36
2023/05/29 08:14:22;;;;;;;;;;;;;;;26.36;42.13;100485.97;5071637;28;1012;-37
2023/05/29 08:16:48;;;;;;;;;;;;;;;26.33;42.66;100488.19;5038418;28;1917;-37
2023/05/29 08:19:14;;;;;;;;;;;;;;;26.43;42.53;100490.59;5065947;28;996;-37
2023/05/29 08:21:40;;;;;;;;;;;;;;;26.52;42.36;100498.47;5074146;28;1067;-37
2023/05/29 08:24:06;;;;;;;;;;;;;;;26.11;43.60;100493.44;5066096;28;1074;-42
2023/05/29 08:26:31;;;;;;;;;;;;;;;26.20;43.25;100499.56;5075763;28;1062;-37
2023/05/29 08:28:57;;;;;;;;;;;;;;;26.21;43.05;100495.88;5076813;28;1149;-37
2023/05/29 08:31:25;;;;;;;;;;;;;;;26.13;43.33;100499.47;5062815;28;928;-38
2023/05/29 08:33:51;;;;;;;;;;;;;;;26.01;43.60;100497.22;5063254;28;1131;-38
2023/05/29 08:36:17;;;;;;;;;;;;;;;25.78;44.11;100502.63;5076614;28;1984;-37
2023/05/29 08:38:42;;;;;;;;;;;;;;;25.92;43.86;100487.53;5071256;28;1114;-36
2023/05/29 08:41:08;;;;;;;;;;;;;;;25.70;44.11;100484.66;5056620;28;1111;-37
2023/05/29 08:43:34;;;;;;;;;;;;;;;25.61;44.54;100499.19;5038977;28;1063;-37
2023/05/29 08:46:01;;;;;;;;;;;;;;;25.75;44.06;100492.19;5056660;28;1107;-37
2023/05/29 08:48:26;;;;;;;;;;;;;;;25.72;44.27;100495.25;5073234;28;1166;-37
2023/05/29 08:50:52;;;;;;;;;;;;;;;25.60;44.53;100495.66;5065765;28;852;-37
2023/05/29 08:53:18;;;;;;;;;;;;;;;25.90;43.84;100495.78;5073182;28;1203;-37
2023/05/29 08:55:45;;;;;;;;;;;;;;;25.90;43.76;100492.25;5057804;28;1967;-37
2023/05/29 08:58:11;;;;;;;;;;;;;;;25.70;43.96;100487.34;5076171;28;998;-38
2023/05/29 09:00:36;;;;;;;;;;;;;;;25.14;46.11;100482.97;5065393;28;1043;-39
2023/05/29 09:03:03;;;;;;;;;;;;;;;25.37;46.12;100488.41;5072034;28;1146;-44
2023/05/29 09:05:29;;;;;;;;;;;;;;;25.41;46.11;100489.69;5076003;28;1229;-41
2023/05/29 09:07:55;;;;;;;;;;;;;;;25.22;46.43;100482.91;5076001;28;1058;-43
2023/05/29 09:10:22;;;;;;;;;;;;;;;25.17;47.05;100474.53;5047238;28;1098;-40
2023/05/29 09:12:49;;;;;;;;;;;;;;;25.16;47.54;100467.47;5060191;28;1283;-42
2023/05/29 09:15:19;;;;;;;;;;;;;;;24.76;48.43;100476.34;5064138;28;2000;-39
2023/05/29 09:17:54;;;;;;;;;;;;;;;24.78;48.09;100470.81;5061754;28;1193;-41
2023/05/29 09:20:22;;;;;;;;;;;;;;;24.84;48.38;100470.09;5073727;28;1063;-39
2023/05/29 09:22:58;;;;;;;;;;;;;;;25.21;47.87;100469.63;5065105;28;1063;-40
2023/05/29 09:25:26;;;;;;;;;;;;;;;25.45;47.24;100468.63;5057086;28;1098;-44
2023/05/29 09:28:02;;;;;;;;;;;;;;;25.61;47.00;100467.69;5076134;28;1221;-41
2023/05/29 09:30:34;;;;;;;;;;;;;;;25.75;46.55;100471.50;5062211;28;1043;-41
2023/05/29 09:33:00;;;;;;;;;;;;;;;25.73;46.50;100467.28;5060083;28;1241;-44
2023/05/29 09:35:27;;;;;;;;;;;;;;;25.74;46.15;100456.31;5058865;28;1902;-40
2023/05/29 09:37:52;;;;;;;;;;;;;;;25.68;46.83;100462.44;5060208;28;1257;-43
2023/05/29 09:40:18;;;;;;;;;;;;;;;25.84;46.72;100453.38;5071670;28;1206;-49
2023/05/29 09:42:43;;;;;;;;;;;;;;;25.94;45.65;100446.91;5055743;28;1244;-42
2023/05/29 09:45:09;;;;;;;;;;;;;;;25.95;46.26;100444.03;5030961;28;1329;-44
2023/05/29 09:47:35;;;;;;;;;;;;;;;26.01;45.89;100453.22;5024265;28;1262;-40
2023/05/29 09:50:00;;;;;;;;;;;;;;;26.04;46.01;100447.50;5020482;28;1231;-41
2023/05/29 09:52:26;;;;;;;;;;;;;;;26.14;45.65;100453.44;5035745;28;1257;-40
2023/05/29 09:54:52;;;;;;;;;;;;;;;26.11;45.23;100445.72;5014846;28;1535;-41
2023/05/29 09:57:18;;;;;;;;;;;;;;;26.01;46.79;100442.44;5015992;28;1963;-40
2023/05/29 09:59:44;;;;;;;;;;;;;;;26.13;45.59;100446.38;5016169;28;1277;-39
2023/05/29 10:02:12;;;;;;;;;;;;;;;26.11;46.23;100448.44;5021042;28;1183;-39
2023/05/29 10:04:39;;;;;;;;;;;;;;;26.00;46.96;100446.19;5027720;28;1283;-39
2023/05/29 10:07:08;;;;;;;;;;;;;;;26.32;45.56;100452.28;5015030;28;1211;-41
2023/05/29 10:09:34;;;;;;;;;;;;;;;26.22;46.45;100447.16;5019377;28;1147;-43
2023/05/29 10:12:02;;;;;;;;;;;;;;;26.11;47.47;100439.53;5030933;28;1079;-41
2023/05/29 10:14:27;;;;;;;;;;;;;;;26.07;45.75;100438.19;5033149;28;1115;-39
2023/05/29 10:16:53;;;;;;;;;;;;;;;26.19;45.60;100439.44;5030341;28;1977;-39
2023/05/29 10:19:20;;;;;;;;;;;;;;;26.24;44.24;100438.88;5031739;28;1040;-39
2023/05/29 10:21:47;;;;;;;;;;;;;;;26.26;43.53;100432.28;5030510;28;1140;-39
2023/05/29 10:24:12;;;;;;;;;;;;;;;26.39;45.11;100434.34;5019576;28;1080;-40
2023/05/29 10:26:38;;;;;;;;;;;;;;;26.13;47.94;100434.75;5030090;28;1266;-41
2023/05/29 10:29:13;;;;;;;;;;;;;;;26.40;46.80;100427.09;5037764;28;915;-40
2023/05/29 10:31:42;;;;;;;;;;;;;;;26.16;48.88;100415.53;5025677;28;1039;-42
2023/05/29 10:34:20;;;;;;;;;;;;;;;26.33;48.19;100434.25;5019729;28;1154;-45
2023/05/29 10:36:47;;;;;;;;;;;;;;;25.94;48.48;100430.75;5037338;28;1963;-41
2023/05/29 10:39:13;;;;;;;;;;;;;;;25.98;48.58;100430.19;5017616;28;1111;-40
2023/05/29 10:41:41;;;;;;;;;;;;;;;25.73;49.63;100426.88;5032045;28;1055;-38
2023/05/29 10:44:25;;;;;;;;;;;;;;;25.65;49.48;100425.94;5038954;28;1167;-42
2023/05/29 10:46:51;;;;;;;;;;;;;;;25.73;48.41;100427.72;5075718;28;1158;-39
2023/05/29 10:49:19;;;;;;;;;;;;;;;26.02;48.22;100423.44;5068025;28;1059;-41
2023/05/29 10:51:45;;;;;;;;;;;;;;;25.52;50.20;100422.97;5074011;28;1081;-41
2023/05/29 10:54:10;;;;;;;;;;;;;;;24.65;52.30;100423.78;5078273;28;991;-38
2023/05/29 10:56:36;;;;;;;;;;;;;;;24.52;51.92;100421.66;5061178;28;1969;-45
2023/05/29 10:59:01;;;;;;;;;;;;;;;24.54;53.12;100425.00;5068530;28;1027;-41
2023/05/29 11:01:28;;;;;;;;;;;;;;;24.43;53.88;100425.38;5077698;28;1043;-40
2023/05/29 11:03:54;;;;;;;;;;;;;;;24.24;54.75;100429.28;5077282;28;897;-41
2023/05/29 11:06:20;;;;;;;;;;;;;;;25.05;53.31;100433.72;5071241;28;1145;-41
2023/05/29 11:08:55;;;;;;;;;;;;;;;24.52;53.48;100428.88;5050236;28;1135;-36
2023/05/29 11:11:27;;;;;;;;;;;;;;;24.13;54.02;100433.13;5071226;28;1012;-37
2023/05/29 11:13:53;;;;;;;;;;;;;;;23.95;54.32;100439.53;5070580;28;1093;-35
2023/05/29 11:16:25;;;;;;;;;;;;;;;23.89;54.12;100424.94;5077121;28;1907;-40
2023/05/29 11:18:50;;;;;;;;;;;;;;;23.44;55.38;100427.13;5064695;28;1136;-40
2023/05/29 11:21:42;;;;;;;;;;;;;;;23.87;54.06;100418.06;5059705;28;1136;-36
2023/05/29 11:24:08;;;;;;;;;;;;;;;24.28;52.68;100414.47;5073294;28;1023;-42
2023/05/29 11:26:33;;;;;;;;;;;;;;;25.21;49.33;100423.88;5059651;28;1103;-37
2023/05/29 11:29:11;;;;;;;;;;;;;;;25.50;48.53;100428.56;5064690;28;1156;-36
2023/05/29 11:31:37;;;;;;;;;;;;;;;25.46;48.69;100435.31;5066260;28;1011;-38
2023/05/29 11:34:04;;;;;;;;;;;;;;;25.79;47.96;100431.56;5076316;28;1151;-37
2023/05/29 11:36:33;;;;;;;;;;;;;;;26.12;46.58;100435.78;5065193;28;1909;-36
2023/05/29 11:38:59;;;;;;;;;;;;;;;26.43;44.55;100434.81;5076449;28;1193;-36
2023/05/29 11:41:25;;;;;;;;;;;;;;;26.31;44.63;100434.41;5077393;28;1129;-38
2023/05/29 11:43:58;;;;;;;;;;;;;;;26.35;45.26;100434.91;5077413;28;1146;-37
2023/05/29 11:46:26;;;;;;;;;;;;;;;26.17;46.02;100447.69;5077023;28;1200;-38
2023/05/29 11:48:51;;;;;;;;;;;;;;;25.84;46.54;100436.41;5057450;28;1170;-34
2023/05/29 11:51:17;;;;;;;;;;;;;;;25.83;45.98;100435.56;5065104;28;1123;-36
2023/05/29 11:53:43;;;;;;;;;;;;;;;25.45;47.20;100433.63;5069751;28;1079;-36
2023/05/29 11:56:10;;;;;;;;;;;;;;;25.41;47.29;100426.91;5071386;28;1906;-37
2023/05/29 11:58:36;;;;;;;;;;;;;;;25.73;45.99;100422.34;5069862;28;1103;-39
2023/05/29 12:01:01;;;;;;;;;;;;;;;25.70;46.86;100424.56;5070735;28;1039;-40
2023/05/29 12:03:27;;;;;;;;;;;;;;;25.85;46.51;100414.66;5039770;28;1398;-37
2023/05/29 12:05:55;;;;;;;;;;;;;;;25.75;46.41;100420.31;5070242;28;1043;-38
2023/05/29 12:08:24;;;;;;;;;;;;;;;25.85;45.22;100411.97;5057042;28;1104;-39
2023/05/29 12:10:50;;;;;;;;;;;;;;;25.70;46.26;100398.47;5056898;28;1221;-40
2023/05/29 12:13:18;;;;;;;;;;;;;;;25.77;45.71;100404.81;5070467;28;1193;-42
2023/05/29 12:15:44;;;;;;;;;;;;;;;25.98;44.40;100405.94;5073776;28;1906;-42
2023/05/29 12:18:10;;;;;;;;;;;;;;;26.03;44.62;100414.31;5059414;28;1092;-38
2023/05/29 12:20:35;;;;;;;;;;;;;;;25.72;44.76;100403.66;5062442;28;1146;-42
2023/05/29 12:23:01;;;;;;;;;;;;;;;25.58;45.95;100405.25;5068332;28;1084;-42
2023/05/29 12:25:27;;;;;;;;;;;;;;;25.58;46.46;100400.72;5062882;28;1053;-47
2023/05/29 12:27:52;;;;;;;;;;;;;;;25.55;44.69;100406.47;5076442;28;1126;-46
2023/05/29 12:30:18;;;;;;;;;;;;;;;25.84;45.37;100407.56;5044649;28;1417;-40
2023/05/29 12:32:47;;;;;;;;;;;;;;;25.77;45.63;100404.81;5065468;28;1130;-39
2023/05/29 12:35:16;;;;;;;;;;;;;;;26.01;44.28;100405.56;5071067;28;1098;-43
2023/05/29 12:37:42;;;;;;;;;;;;;;;26.19;43.87;100406.25;5076424;28;1910;-39
2023/05/29 12:40:15;;;;;;;;;;;;;;;25.83;45.37;100407.75;5076144;28;1106;-44
2023/05/29 12:42:40;;;;;;;;;;;;;;;25.76;44.80;100403.09;5072562;28;1106;-41
2023/05/29 12:45:07;;;;;;;;;;;;;;;24.94;47.30;100403.50;5069135;28;1140;-40
2023/05/29 12:47:33;;;;;;;;;;;;;;;24.73;47.72;100397.84;5065836;28;1055;-40
2023/05/29 12:49:58;;;;;;;;;;;;;;;24.77;47.83;100393.81;5061393;28;1126;-39